Time;durP1;ratioP1;P1;durP2;ratioP2;P2;SDS_P1;SDS_P2;PMS_P1;PMS_P2;Temp;Humidity;BMP_temperature;BMP_pressure;BME280_temperature;BME280_humidity;BME280_pressure;Samples;Min_cycle;Max_cycle;Signal;HPM_P1;HPM_P2
2022/11/12 00:02:45;;;;;;;36.75;17.52;;;7.80;64.90;;;;;;5036914;28;20068;-46
2022/11/12 00:05:31;;;;;;;29.48;14.88;;;7.80;64.90;;;;;;5043524;28;20040;-47
2022/11/12 00:08:17;;;;;;;32.03;13.93;;;7.70;64.90;;;;;;5052296;28;20535;-47
2022/11/12 00:11:03;;;;;;;24.98;11.27;;;7.70;64.90;;;;;;5051196;28;20052;-47
2022/11/12 00:13:51;;;;;;;18.42;10.18;;;7.70;65.00;;;;;;5051570;28;20052;-47
2022/11/12 00:16:40;;;;;;;19.83;9.35;;;7.70;65.10;;;;;;5051692;28;20099;-47
2022/11/12 00:19:28;;;;;;;21.92;9.77;;;7.70;65.00;;;;;;5033579;28;20064;-47
2022/11/12 00:22:19;;;;;;;21.58;9.50;;;7.60;64.90;;;;;;5035462;28;20107;-48
2022/11/12 00:25:07;;;;;;;15.75;8.30;;;7.60;64.90;;;;;;5043307;28;20048;-47
2022/11/12 00:28:00;;;;;;;13.80;8.20;;;7.60;65.00;;;;;;5049640;28;20053;-47
2022/11/12 00:30:46;;;;;;;15.25;7.72;;;7.60;65.10;;;;;;5039554;28;20107;-47
2022/11/12 00:33:33;;;;;;;16.85;8.43;;;7.60;65.00;;;;;;5035285;28;20056;-48
2022/11/12 00:36:18;;;;;;;14.02;8.00;;;7.60;65.10;;;;;;5051752;28;20170;-47
2022/11/12 00:39:06;;;;;;;16.23;8.70;;;7.50;65.00;;;;;;5027161;28;20069;-47
2022/11/12 00:41:52;;;;;;;17.10;7.93;;;7.50;65.10;;;;;;5033041;28;20067;-47
2022/11/12 00:44:37;;;;;;;20.95;10.57;;;7.50;65.10;;;;;;5036317;28;20059;-48
2022/11/12 00:47:23;;;;;;;25.63;11.05;;;7.50;65.10;;;;;;5048343;28;20076;-47
2022/11/12 00:50:09;;;;;;;17.50;9.60;;;7.50;65.20;;;;;;5034861;28;20182;-47
2022/11/12 00:52:57;;;;;;;19.83;9.60;;;7.50;65.10;;;;;;5034549;28;20142;-47
2022/11/12 00:55:49;;;;;;;20.85;9.75;;;7.50;65.10;;;;;;5031477;28;20183;-47
2022/11/12 00:58:35;;;;;;;18.90;9.93;;;7.40;65.10;;;;;;5032576;28;20083;-47
2022/11/12 01:01:25;;;;;;;20.15;10.85;;;7.40;65.40;;;;;;5040874;28;20095;-47
2022/11/12 01:04:12;;;;;;;19.50;9.65;;;7.40;65.50;;;;;;5050576;28;20099;-47
2022/11/12 01:06:58;;;;;;;22.15;9.05;;;7.40;65.50;;;;;;5047199;28;20052;-48
2022/11/12 01:09:43;;;;;;;18.02;8.32;;;7.40;65.30;;;;;;5038134;28;20048;-47
2022/11/12 01:12:30;;;;;;;15.30;8.43;;;7.40;65.30;;;;;;5042483;28;20059;-48
2022/11/12 01:15:18;;;;;;;17.20;8.70;;;7.40;65.30;;;;;;5047385;28;20051;-47
2022/11/12 01:18:05;;;;;;;11.15;7.28;;;7.40;65.30;;;;;;5037385;28;20076;-48
2022/11/12 01:20:50;;;;;;;18.27;7.63;;;7.40;65.30;;;;;;5038891;28;20064;-48
2022/11/12 01:23:40;;;;;;;15.82;8.00;;;7.40;65.40;;;;;;5029890;28;20552;-48
2022/11/12 01:26:30;;;;;;;11.43;6.35;;;7.40;65.30;;;;;;5034260;28;20142;-47
2022/11/12 01:29:16;;;;;;;13.18;6.50;;;7.30;65.30;;;;;;5038278;28;20528;-48
2022/11/12 01:32:01;;;;;;;15.50;7.13;;;7.40;65.30;;;;;;5050375;28;20048;-50
2022/11/12 01:34:50;;;;;;;12.70;6.70;;;7.30;65.30;;;;;;5044230;28;20053;-47
2022/11/12 01:37:38;;;;;;;12.43;6.45;;;7.30;65.30;;;;;;5037325;28;20531;-47
2022/11/12 01:40:24;;;;;;;10.85;6.30;;;7.30;65.30;;;;;;5042001;28;20052;-47
2022/11/12 01:43:12;;;;;;;10.98;5.88;;;7.30;65.30;;;;;;5044450;28;20056;-49
2022/11/12 01:46:01;;;;;;;11.45;6.63;;;7.30;65.30;;;;;;5041618;28;20156;-47
2022/11/12 01:48:53;;;;;;;12.90;5.80;;;7.30;65.30;;;;;;5037486;28;20443;-48
2022/11/12 01:51:42;;;;;;;;;;;7.20;65.30;;;;;;5040832;28;20048;-46
2022/11/12 01:54:31;;;;;;;10.20;5.50;;;7.30;65.50;;;;;;5021761;28;20384;-47
2022/11/12 01:57:23;;;;;;;8.23;5.72;;;7.20;65.00;;;;;;5038640;28;20153;-48
2022/11/12 02:00:10;;;;;;;8.68;6.10;;;7.20;65.10;;;;;;5046890;28;20076;-47
2022/11/12 02:02:58;;;;;;;9.88;5.25;;;7.20;65.20;;;;;;5034472;28;20540;-47
2022/11/12 02:05:51;;;;;;;9.20;6.20;;;7.10;65.20;;;;;;5037437;28;20068;-47
2022/11/12 02:08:40;;;;;;;10.05;6.00;;;7.10;65.30;;;;;;5011015;28;20136;-48
2022/11/12 02:11:25;;;;;;;10.32;6.45;;;7.20;65.40;;;;;;5027418;28;20080;-47
2022/11/12 02:14:11;;;;;;;9.85;5.90;;;7.10;65.40;;;;;;5033371;28;20555;-46
2022/11/12 02:17:03;;;;;;;9.02;6.20;;;7.10;65.50;;;;;;5041992;28;20064;-47
2022/11/12 02:19:53;;;;;;;8.38;6.32;;;7.20;65.60;;;;;;5049994;28;20060;-47
2022/11/12 02:22:41;;;;;;;9.02;6.53;;;7.10;65.60;;;;;;5029126;28;20594;-47
2022/11/12 02:25:27;;;;;;;7.28;6.03;;;7.10;65.80;;;;;;5040505;28;20409;-48
2022/11/12 02:28:13;;;;;;;8.77;5.47;;;7.20;66.00;;;;;;5048745;28;20120;-47
2022/11/12 02:31:00;;;;;;;6.75;5.40;;;7.20;66.00;;;;;;5028308;28;20409;-48
2022/11/12 02:33:47;;;;;;;8.02;5.95;;;7.20;66.00;;;;;;5022371;28;20060;-47
2022/11/12 02:36:32;;;;;;;6.60;5.43;;;7.20;66.00;;;;;;5049476;28;20056;-47
2022/11/12 02:39:18;;;;;;;7.90;5.65;;;7.20;66.00;;;;;;5054098;28;20107;-47
2022/11/12 02:42:05;;;;;;;8.10;5.47;;;7.20;66.00;;;;;;5038297;28;20064;-47
2022/11/12 02:44:53;;;;;;;7.93;5.82;;;7.10;65.80;;;;;;5041646;28;20056;-46
2022/11/12 02:47:38;;;;;;;5.60;4.93;;;7.20;65.90;;;;;;5033508;28;20184;-46
2022/11/12 02:50:24;;;;;;;7.35;5.93;;;7.10;65.90;;;;;;5029408;28;20366;-48
2022/11/12 02:53:12;;;;;;;7.78;5.43;;;7.20;65.90;;;;;;5035615;28;20529;-47
2022/11/12 02:55:58;;;;;;;8.02;5.53;;;7.10;65.80;;;;;;5028355;28;20149;-48
2022/11/12 02:58:46;;;;;;;6.65;4.95;;;7.10;65.80;;;;;;5033824;28;20107;-46
2022/11/12 03:01:32;;;;;;;7.72;5.25;;;7.10;65.90;;;;;;5040238;28;20441;-47
2022/11/12 03:04:17;;;;;;;7.80;5.15;;;7.10;65.80;;;;;;5044790;28;20110;-47
2022/11/12 03:07:02;;;;;;;6.00;5.13;;;7.10;65.90;;;;;;5053039;28;20524;-48
2022/11/12 03:09:48;;;;;;;6.78;5.07;;;7.10;66.00;;;;;;5031658;28;20417;-46
2022/11/12 03:12:36;;;;;;;7.38;5.72;;;7.10;66.10;;;;;;5040985;28;20516;-48
2022/11/12 03:15:29;;;;;;;9.80;5.65;;;7.10;66.10;;;;;;5051275;28;20051;-47
2022/11/12 03:18:16;;;;;;;5.28;4.78;;;7.10;66.20;;;;;;5036251;28;20056;-47
2022/11/12 03:21:06;;;;;;;7.38;5.07;;;7.10;66.20;;;;;;5036603;28;20056;-47
2022/11/12 03:23:53;;;;;;;9.90;5.53;;;7.20;66.30;;;;;;5030473;28;20152;-47
2022/11/12 03:26:41;;;;;;;9.20;5.28;;;7.10;66.30;;;;;;5029556;28;20060;-48
2022/11/12 03:29:33;;;;;;;7.55;5.22;;;7.20;66.40;;;;;;5040310;28;20059;-48
2022/11/12 03:32:18;;;;;;;7.90;5.38;;;7.20;66.40;;;;;;5044067;28;20051;-47
2022/11/12 03:35:04;;;;;;;7.88;5.13;;;7.20;66.40;;;;;;5052431;28;20110;-47
2022/11/12 03:37:52;;;;;;;7.15;4.97;;;7.20;66.50;;;;;;5040572;28;20060;-47
2022/11/12 03:40:37;;;;;;;7.47;5.10;;;7.20;66.40;;;;;;5032811;28;20504;-47
2022/11/12 03:43:23;;;;;;;5.78;5.10;;;7.20;66.50;;;;;;5050160;28;20103;-46
2022/11/12 03:46:11;;;;;;;6.75;5.68;;;7.20;66.60;;;;;;5044060;28;20521;-47
2022/11/12 03:48:58;;;;;;;10.80;5.95;;;7.20;66.60;;;;;;5037891;28;20095;-47
2022/11/12 03:51:44;;;;;;;14.00;7.30;;;7.20;66.80;;;;;;5027000;28;20184;-47
2022/11/12 03:54:35;;;;;;;8.10;6.00;;;7.30;66.80;;;;;;5032042;28;20126;-47
2022/11/12 03:57:20;;;;;;;10.93;7.43;;;7.30;66.80;;;;;;5036047;28;20504;-48
2022/11/12 04:00:12;;;;;;;10.55;6.65;;;7.30;66.80;;;;;;5043528;28;20071;-47
2022/11/12 04:03:05;;;;;;;14.32;7.15;;;7.30;66.80;;;;;;5051884;28;20122;-47
2022/11/12 04:08:58;;;;;;;7.97;5.80;;;7.30;66.70;;;;;;5035181;28;20536;-48
2022/11/12 04:11:43;;;;;;;8.68;5.72;;;7.30;66.60;;;;;;5012257;28;20056;-47
2022/11/12 04:14:28;;;;;;;6.82;5.50;;;7.30;66.70;;;;;;5012854;28;20130;-48
2022/11/12 04:23:29;;;;;;;9.10;5.57;;;7.30;66.60;;;;;;5042494;22;20105;-49
2022/11/12 04:26:23;;;;;;;6.75;5.10;;;7.20;66.50;;;;;;5017830;28;20057;-51
2022/11/12 04:32:12;;;;;;;8.80;5.30;;;7.20;66.60;;;;;;5018767;28;20056;-48
2022/11/12 04:35:02;;;;;;;9.75;4.70;;;7.20;66.60;;;;;;5026850;28;20056;-50
2022/11/12 04:37:49;;;;;;;12.15;5.72;;;7.20;66.60;;;;;;5016260;28;20577;-48
2022/11/12 04:47:00;;;;;;;14.52;6.10;;;7.20;66.60;;;;;;5017445;28;20708;-49
2022/11/12 04:49:51;;;;;;;8.80;5.05;;;7.20;66.60;;;;;;5028684;28;20783;-52
2022/11/12 04:52:37;;;;;;;9.05;5.53;;;7.20;66.80;;;;;;5013641;28;20120;-51
2022/11/12 04:55:22;;;;;;;8.70;5.38;;;7.20;66.80;;;;;;5011540;28;20061;-48
2022/11/12 04:58:07;;;;;;;8.88;5.90;;;7.20;66.80;;;;;;5010617;28;20057;-49
2022/11/12 05:00:54;;;;;;;7.35;4.85;;;7.20;66.90;;;;;;5008643;28;20165;-51
2022/11/12 05:03:39;;;;;;;9.85;4.88;;;7.10;66.90;;;;;;5018905;28;20625;-51
2022/11/12 05:09:32;;;;;;;6.90;4.97;;;7.10;66.90;;;;;;5028054;28;20052;-50
2022/11/12 05:12:16;;;;;;;8.43;5.00;;;7.10;66.90;;;;;;5014992;28;20128;-50
2022/11/12 05:15:05;;;;;;;8.20;5.55;;;7.10;67.00;;;;;;5022945;28;20425;-47
2022/11/12 05:17:53;;;;;;;10.38;5.38;;;7.10;67.10;;;;;;5024541;28;20454;-49
2022/11/12 05:20:39;;;;;;;5.95;5.05;;;7.10;67.10;;;;;;5008200;28;20056;-51
2022/11/12 05:23:24;;;;;;;10.15;5.40;;;7.10;67.10;;;;;;5020455;28;20098;-47
2022/11/12 05:26:13;;;;;;;11.20;5.05;;;7.10;67.10;;;;;;5027320;28;20119;-51
2022/11/12 05:29:01;;;;;;;10.52;6.38;;;7.10;67.10;;;;;;5021619;28;20182;-47
2022/11/12 05:31:52;;;;;;;12.35;5.93;;;7.10;67.00;;;;;;5018798;28;20061;-47
2022/11/12 05:34:38;;;;;;;9.65;5.38;;;7.10;67.00;;;;;;5014299;28;20199;-52
2022/11/12 05:37:27;;;;;;;6.28;4.88;;;7.10;67.00;;;;;;5028935;28;20118;-51
2022/11/12 05:40:23;;;;;;;11.55;5.80;;;7.10;67.00;;;;;;5015029;28;20049;-51
2022/11/12 05:43:14;;;;;;;10.23;5.72;;;7.10;67.00;;;;;;5019137;28;20061;-51
2022/11/12 05:46:00;;;;;;;9.07;5.43;;;7.10;66.90;;;;;;5018826;28;20604;-50
2022/11/12 05:48:46;;;;;;;7.88;5.15;;;7.10;66.80;;;;;;5012079;28;20053;-48
2022/11/12 05:51:32;;;;;;;7.75;5.28;;;7.10;66.80;;;;;;5020541;28;20060;-51
2022/11/12 05:54:18;;;;;;;9.63;5.72;;;7.10;66.90;;;;;;5005764;28;20120;-52
2022/11/12 05:57:03;;;;;;;7.53;5.78;;;7.10;66.90;;;;;;5012327;28;20060;-52
2022/11/12 05:59:49;;;;;;;9.57;5.97;;;7.00;66.90;;;;;;5020553;28;20124;-49
2022/11/12 06:02:39;;;;;;;10.63;5.88;;;7.00;66.90;;;;;;5013458;28;20049;-51
2022/11/12 06:05:24;;;;;;;15.85;5.75;;;7.10;66.80;;;;;;5030640;28;20053;-51
2022/11/12 06:08:10;;;;;;;10.93;5.47;;;7.00;66.90;;;;;;5014967;28;20100;-50
2022/11/12 06:11:06;;;;;;;7.65;5.65;;;7.00;66.90;;;;;;5016937;28;20065;-50
2022/11/12 06:13:54;;;;;;;9.77;5.65;;;7.00;67.00;;;;;;4994752;28;20569;-50
2022/11/12 06:16:41;;;;;;;13.07;6.57;;;7.00;66.90;;;;;;5003779;28;20057;-49
2022/11/12 06:19:26;;;;;;;8.52;6.00;;;7.00;67.60;;;;;;5026429;28;20533;-49
2022/11/12 06:22:12;;;;;;;10.15;5.68;;;7.00;66.80;;;;;;5023196;28;20620;-49
2022/11/12 06:25:00;;;;;;;9.57;6.70;;;7.00;66.80;;;;;;5021177;28;20076;-49
2022/11/12 06:27:47;;;;;;;10.50;6.30;;;6.90;66.80;;;;;;5012074;28;20521;-50
2022/11/12 06:30:35;;;;;;;10.20;6.03;;;6.90;66.80;;;;;;5021498;28;20048;-49
2022/11/12 06:33:20;;;;;;;8.35;5.60;;;6.90;66.80;;;;;;5025569;28;20052;-47
2022/11/12 06:36:06;;;;;;;9.48;5.45;;;6.90;66.80;;;;;;5016496;28;20052;-50
2022/11/12 06:38:55;;;;;;;6.70;4.63;;;6.90;66.80;;;;;;5011488;28;20064;-48
2022/11/12 06:41:40;;;;;;;9.02;5.50;;;6.90;66.80;;;;;;5028674;28;20057;-50
2022/11/12 06:44:28;;;;;;;8.27;5.35;;;6.90;66.90;;;;;;5032244;28;20528;-49
2022/11/12 06:47:14;;;;;;;8.45;5.03;;;6.90;66.90;;;;;;5014431;28;20050;-49
2022/11/12 06:50:05;;;;;;;7.88;5.18;;;6.90;67.00;;;;;;5012032;28;20521;-50
2022/11/12 06:52:57;;;;;;;8.40;5.00;;;6.90;67.10;;;;;;5014997;28;20053;-50
2022/11/12 06:55:42;;;;;;;7.65;4.90;;;6.80;67.10;;;;;;5010154;28;20712;-50
2022/11/12 06:58:28;;;;;;;8.20;6.43;;;6.90;67.00;;;;;;5024472;28;20125;-50
2022/11/12 07:01:16;;;;;;;13.35;6.63;;;6.90;67.10;;;;;;5015554;28;20434;-50
2022/11/12 07:04:06;;;;;;;9.85;6.53;;;6.90;67.90;;;;;;5022842;28;20052;-49
2022/11/12 07:06:55;;;;;;;11.20;7.60;;;6.90;67.30;;;;;;5021999;28;20072;-49
2022/11/12 07:09:40;;;;;;;9.73;6.38;;;7.00;67.30;;;;;;5031596;28;20053;-50
2022/11/12 07:12:26;;;;;;;13.93;6.72;;;6.90;67.30;;;;;;5018692;28;20180;-50
2022/11/12 07:15:17;;;;;;;10.50;5.97;;;6.90;67.60;;;;;;5025060;28;20095;-50
2022/11/12 07:18:02;;;;;;;10.55;5.97;;;6.90;67.80;;;;;;5024090;28;20126;-48
2022/11/12 07:20:48;;;;;;;9.00;6.20;;;7.00;67.90;;;;;;5024194;28;20155;-49
2022/11/12 07:23:36;;;;;;;10.00;6.10;;;7.00;68.00;;;;;;5025566;28;20112;-50
2022/11/12 07:26:26;;;;;;;11.10;5.60;;;7.00;68.20;;;;;;5031462;28;20056;-50
2022/11/12 07:29:16;;;;;;;10.18;6.43;;;7.00;68.40;;;;;;5022556;28;20180;-46
2022/11/12 07:32:20;;;;;;;13.32;6.25;;;7.10;68.50;;;;;;5015130;28;20057;-47
2022/11/12 07:35:08;;;;;;;13.15;5.57;;;7.10;68.50;;;;;;5021791;28;20053;-51
2022/11/12 07:37:53;;;;;;;7.88;4.93;;;7.20;68.70;;;;;;4994120;28;20065;-49
2022/11/12 07:40:43;;;;;;;10.30;5.25;;;7.20;68.60;;;;;;5015533;28;20774;-50
2022/11/12 07:43:31;;;;;;;7.18;5.00;;;7.30;68.70;;;;;;5022933;28;20184;-50
2022/11/12 07:46:19;;;;;;;8.43;5.53;;;7.30;68.70;;;;;;5033453;28;20055;-48
2022/11/12 07:49:11;;;;;;;8.48;5.40;;;7.40;68.80;;;;;;5015562;28;20049;-50
2022/11/12 07:51:56;;;;;;;10.15;5.72;;;7.40;68.90;;;;;;5012759;28;20080;-50
2022/11/12 07:54:43;;;;;;;9.20;6.10;;;7.50;69.00;;;;;;5012827;28;20048;-49
2022/11/12 07:57:30;;;;;;;8.65;5.72;;;7.50;69.70;;;;;;5029692;28;20536;-49
2022/11/12 08:00:18;;;;;;;9.52;5.53;;;7.50;69.10;;;;;;5015926;28;20056;-50
2022/11/12 08:03:04;;;;;;;7.97;5.28;;;7.60;69.40;;;;;;5024058;28;20444;-49
2022/11/12 08:05:54;;;;;;;8.23;5.90;;;7.60;69.30;;;;;;5033040;28;20122;-49
2022/11/12 08:08:42;;;;;;;10.50;6.80;;;7.70;69.40;;;;;;5010656;28;20052;-50
2022/11/12 08:11:30;;;;;;;7.03;5.82;;;7.70;69.40;;;;;;5027929;28;20111;-50
2022/11/12 08:14:16;;;;;;;9.05;6.03;;;7.80;69.50;;;;;;5029393;28;20071;-50
2022/11/12 08:17:02;;;;;;;8.68;5.78;;;7.80;69.50;;;;;;5032852;28;20417;-49
2022/11/12 08:19:47;;;;;;;10.88;6.60;;;7.90;69.60;;;;;;5016697;28;20060;-50
2022/11/12 08:22:36;;;;;;;10.60;6.97;;;7.90;69.60;;;;;;5018621;28;20055;-49
2022/11/12 08:25:21;;;;;;;11.77;6.65;;;8.00;69.80;;;;;;5024980;28;20068;-49
2022/11/12 08:28:07;;;;;;;10.40;6.95;;;8.00;69.90;;;;;;5014311;28;20049;-49
2022/11/12 08:30:55;;;;;;;10.30;6.75;;;8.10;70.20;;;;;;5014569;28;20072;-50
2022/11/12 08:33:45;;;;;;;8.02;6.47;;;8.20;70.40;;;;;;4992730;28;20049;-49
2022/11/12 08:36:35;;;;;;;10.80;6.70;;;8.20;70.40;;;;;;5002073;28;20533;-50
2022/11/12 08:39:20;;;;;;;8.80;6.70;;;8.30;70.80;;;;;;5023151;28;20064;-50
2022/11/12 08:42:10;;;;;;;10.23;7.38;;;8.30;70.80;;;;;;5031785;28;20051;-49
2022/11/12 08:44:55;;;;;;;9.82;6.43;;;8.40;71.20;;;;;;5020437;28;20419;-50
2022/11/12 08:47:42;;;;;;;8.90;6.82;;;8.50;71.10;;;;;;5014439;28;20552;-50
2022/11/12 08:50:33;;;;;;;10.68;6.82;;;8.60;71.30;;;;;;5021753;28;20052;-48
2022/11/12 08:53:21;;;;;;;7.47;6.65;;;8.60;71.50;;;;;;5011374;28;20049;-47
2022/11/12 08:56:08;;;;;;;9.65;7.05;;;8.70;71.70;;;;;;5010422;28;20052;-49
2022/11/12 08:58:55;;;;;;;11.70;6.60;;;8.80;71.90;;;;;;5020392;28;20060;-49
2022/11/12 09:01:40;;;;;;;8.98;7.03;;;8.80;72.00;;;;;;5011818;28;20181;-50
2022/11/12 09:04:33;;;;;;;9.43;6.22;;;8.90;72.10;;;;;;5015104;28;20068;-50
2022/11/12 09:07:20;;;;;;;9.30;6.93;;;9.00;72.10;;;;;;5013086;28;20084;-50
2022/11/12 09:10:29;;;;;;;8.65;6.68;;;9.10;72.20;;;;;;5023426;28;20124;-50
2022/11/12 09:13:17;;;;;;;12.95;7.13;;;9.20;72.30;;;;;;5031460;28;20056;-47
2022/11/12 09:16:05;;;;;;;9.45;6.75;;;9.30;72.30;;;;;;5015966;28;20123;-51
2022/11/12 09:18:54;;;;;;;9.57;7.35;;;9.30;72.30;;;;;;5020092;28;20446;-50
2022/11/12 09:21:40;;;;;;;10.02;6.22;;;9.40;72.40;;;;;;5011551;28;20053;-49
2022/11/12 09:24:26;;;;;;;10.13;6.50;;;9.40;72.30;;;;;;5007209;28;20053;-50
2022/11/12 09:27:13;;;;;;;10.10;6.93;;;9.50;72.20;;;;;;5023367;28;20096;-48
2022/11/12 09:30:01;;;;;;;7.65;6.43;;;9.60;72.20;;;;;;4992387;28;20522;-45
2022/11/12 09:32:46;;;;;;;10.23;6.70;;;9.60;72.10;;;;;;4994136;28;20053;-49
2022/11/12 09:35:32;;;;;;;10.82;6.55;;;9.70;72.20;;;;;;5013820;28;20072;-49
2022/11/12 09:38:21;;;;;;;12.65;6.72;;;9.70;72.20;;;;;;5023203;28;20545;-47
2022/11/12 09:41:16;;;;;;;5.70;5.10;;;9.80;72.20;;;;;;5031396;28;20052;-50
2022/11/12 09:44:18;;;;;;;9.45;6.53;;;9.90;72.30;;;;;;5013286;28;20413;-50
2022/11/12 09:47:23;;;;;;;8.43;6.25;;;10.00;72.30;;;;;;5023586;28;20065;-50
2022/11/12 09:50:24;;;;;;;8.23;6.30;;;10.10;72.60;;;;;;5015756;28;20061;-50
2022/11/12 09:53:15;;;;;;;8.60;6.28;;;10.10;72.50;;;;;;5008560;28;20044;-50
2022/11/12 09:56:05;;;;;;;11.00;6.07;;;10.20;72.30;;;;;;5019838;28;20617;-50
2022/11/12 09:58:53;;;;;;;11.27;5.95;;;10.30;72.40;;;;;;4996072;28;20061;-48
2022/11/12 10:02:18;;;;;;;11.52;6.80;;;10.30;72.10;;;;;;5004080;28;20056;-50
2022/11/12 10:05:06;;;;;;;9.75;6.15;;;10.40;72.70;;;;;;5022868;28;20068;-50
2022/11/12 10:08:11;;;;;;;8.43;6.10;;;10.50;71.90;;;;;;4995267;28;20645;-50
2022/11/12 10:11:01;;;;;;;8.85;5.57;;;10.50;72.30;;;;;;5003289;28;20053;-51
2022/11/12 10:14:15;;;;;;;8.50;5.85;;;10.60;72.00;;;;;;5022671;28;20172;-49
2022/11/12 10:17:08;;;;;;;8.52;5.63;;;10.70;72.40;;;;;;4995451;28;20061;-50
2022/11/12 10:20:07;;;;;;;7.63;6.10;;;10.70;71.70;;;;;;5010567;28;20045;-50
2022/11/12 10:22:53;;;;;;;10.25;5.43;;;10.80;72.30;;;;;;5014823;28;20108;-49
2022/11/12 10:25:44;;;;;;;8.32;5.82;;;10.90;71.70;;;;;;5028953;28;20053;-49
2022/11/12 10:28:36;;;;;;;8.50;5.65;;;10.90;71.90;;;;;;5032763;28;20536;-50
2022/11/12 10:31:23;;;;;;;8.57;5.57;;;11.00;71.90;;;;;;5018158;28;20048;-50
2022/11/12 10:34:14;;;;;;;7.72;5.55;;;11.10;71.70;;;;;;5018779;28;20414;-50
2022/11/12 10:37:08;;;;;;;8.43;5.65;;;11.20;71.90;;;;;;4995380;28;20137;-50
2022/11/12 10:39:56;;;;;;;9.77;5.90;;;11.20;71.70;;;;;;5010510;28;20123;-51
2022/11/12 10:43:18;;;;;;;9.75;6.93;;;11.30;71.70;;;;;;5025483;28;20159;-49
2022/11/12 10:46:22;;;;;;;12.15;7.60;;;11.40;72.40;;;;;;5029526;28;20079;-49
2022/11/12 10:49:14;;;;;;;11.50;6.15;;;11.50;72.30;;;;;;5022421;28;20053;-51
2022/11/12 10:51:59;;;;;;;10.02;7.10;;;11.60;71.90;;;;;;5009866;28;20065;-51
2022/11/12 10:54:44;;;;;;;9.57;6.22;;;11.60;71.60;;;;;;5013483;28;20104;-46
2022/11/12 10:57:34;;;;;;;9.23;6.55;;;11.60;71.50;;;;;;5020636;28;20613;-50
2022/11/12 11:00:22;;;;;;;9.20;7.30;;;11.70;71.30;;;;;;5025438;28;20055;-49
2022/11/12 11:03:23;;;;;;;9.60;6.93;;;11.80;71.40;;;;;;5029322;28;20049;-47
2022/11/12 11:06:17;;;;;;;8.70;6.50;;;11.90;71.90;;;;;;5022776;28;20696;-48
2022/11/12 11:09:11;;;;;;;12.77;7.40;;;11.90;71.40;;;;;;5022168;28;20061;-51
2022/11/12 11:12:00;;;;;;;10.23;6.38;;;12.00;71.40;;;;;;4994347;28;20057;-49
2022/11/12 11:14:46;;;;;;;11.27;7.57;;;12.00;71.20;;;;;;5000453;28;20072;-50
2022/11/12 11:17:31;;;;;;;10.02;6.60;;;12.10;71.20;;;;;;5016955;28;20418;-50
2022/11/12 11:20:24;;;;;;;11.55;7.05;;;12.10;71.10;;;;;;5019074;28;20060;-49
2022/11/12 11:23:29;;;;;;;10.82;7.40;;;12.20;71.20;;;;;;5018469;28;20458;-50
2022/11/12 11:26:41;;;;;;;10.07;7.43;;;12.30;71.20;;;;;;5020719;28;20049;-51
2022/11/12 11:29:32;;;;;;;8.35;6.18;;;12.40;70.80;;;;;;5033392;28;20057;-50
2022/11/12 11:32:59;;;;;;;10.43;7.63;;;12.40;71.40;;;;;;5018996;28;20391;-51
2022/11/12 11:35:48;;;;;;;12.20;7.25;;;12.50;71.20;;;;;;5002276;28;20057;-48
2022/11/12 11:38:40;;;;;;;10.80;7.22;;;12.50;70.60;;;;;;5023040;28;20049;-49
2022/11/12 11:41:46;;;;;;;9.88;6.97;;;12.60;70.50;;;;;;5031226;28;20567;-50
2022/11/12 11:45:07;;;;;;;12.20;6.72;;;12.70;71.30;;;;;;5018483;28;20064;-51
2022/11/12 11:48:31;;;;;;;8.57;6.78;;;12.70;71.10;;;;;;5020082;28;20047;-50
2022/11/12 11:51:53;;;;;;;9.90;7.00;;;12.80;71.00;;;;;;5002477;28;20052;-51
2022/11/12 11:54:54;;;;;;;7.82;6.90;;;12.90;71.10;;;;;;5006273;28;20049;-49
2022/11/12 11:57:57;;;;;;;11.10;7.65;;;13.00;70.70;;;;;;5028791;28;20076;-51
2022/11/12 12:00:52;;;;;;;8.65;6.63;;;13.00;70.70;;;;;;5012185;28;20044;-50
2022/11/12 12:03:59;;;;;;;9.88;6.40;;;13.10;70.40;;;;;;5011673;28;20056;-52
2022/11/12 12:07:20;;;;;;;10.73;8.55;;;13.20;70.40;;;;;;5020823;28;20056;-50
2022/11/12 12:10:14;;;;;;;8.27;7.38;;;13.20;70.30;;;;;;5012598;28;20068;-49
2022/11/12 12:13:12;;;;;;;12.25;6.63;;;13.30;70.00;;;;;;5005808;28;20144;-50
2022/11/12 12:16:27;;;;;;;9.55;6.18;;;13.40;70.00;;;;;;5017661;28;20052;-50
2022/11/12 12:19:41;;;;;;;8.55;5.82;;;13.40;69.70;;;;;;4993269;28;20415;-51
2022/11/12 12:23:08;;;;;;;9.23;6.40;;;13.40;69.90;;;;;;4988122;28;20111;-51
2022/11/12 12:25:56;;;;;;;9.02;6.30;;;13.50;69.60;;;;;;5012086;28;20422;-50
2022/11/12 12:28:48;;;;;;;10.13;6.22;;;13.60;69.50;;;;;;5016938;28;20147;-51
2022/11/12 12:31:43;;;;;;;10.95;6.28;;;13.60;69.40;;;;;;5023213;28;20053;-49
2022/11/12 12:34:40;;;;;;;8.68;5.82;;;13.70;69.30;;;;;;5022152;28;20076;-50
2022/11/12 12:37:30;;;;;;;8.65;7.20;;;13.70;69.30;;;;;;5030379;28;20123;-50
2022/11/12 12:40:30;;;;;;;12.90;7.07;;;13.70;69.30;;;;;;5020504;28;20529;-51
2022/11/12 12:43:47;;;;;;;9.23;6.40;;;13.80;69.40;;;;;;5019858;28;20584;-51
2022/11/12 12:46:39;;;;;;;10.27;6.78;;;13.80;69.40;;;;;;4993032;28;20486;-50
2022/11/12 12:49:35;;;;;;;10.63;6.82;;;13.80;69.30;;;;;;5006576;28;20057;-49
2022/11/12 12:52:22;;;;;;;10.77;7.00;;;13.90;69.30;;;;;;5005664;28;20049;-51
2022/11/12 12:55:40;;;;;;;9.82;6.55;;;13.90;69.20;;;;;;5012251;28;20056;-51
2022/11/12 12:58:31;;;;;;;6.72;6.05;;;14.00;69.60;;;;;;5025477;28;20077;-49
2022/11/12 13:01:21;;;;;;;12.05;7.47;;;14.00;69.30;;;;;;5022591;28;20077;-51
2022/11/12 13:04:07;;;;;;;10.63;7.40;;;14.10;69.20;;;;;;5026448;28;20052;-51
2022/11/12 13:06:56;;;;;;;9.60;7.00;;;14.10;69.10;;;;;;5018728;28;20056;-50
2022/11/12 13:09:43;;;;;;;11.65;7.93;;;14.10;69.10;;;;;;5010172;28;20131;-50
2022/11/12 13:13:20;;;;;;;11.05;7.53;;;14.20;69.90;;;;;;5022430;28;20613;-50
2022/11/12 13:16:06;;;;;;;10.32;7.88;;;14.20;69.40;;;;;;4970704;28;20045;-50
2022/11/12 13:18:52;;;;;;;11.30;7.78;;;14.30;69.10;;;;;;4959497;28;20156;-49
2022/11/12 13:21:37;;;;;;;9.55;7.38;;;14.30;69.00;;;;;;5019179;28;20087;-50
2022/11/12 13:25:00;;;;;;;9.27;8.15;;;14.30;68.90;;;;;;5015055;28;20060;-51
2022/11/12 13:27:47;;;;;;;8.55;7.70;;;14.40;69.30;;;;;;5007613;28;20127;-50
2022/11/12 13:30:33;;;;;;;13.20;8.13;;;14.40;68.90;;;;;;5024154;28;20056;-47
2022/11/12 13:33:28;;;;;;;9.10;7.85;;;14.40;69.50;;;;;;5027862;28;20056;-50
2022/11/12 13:36:28;;;;;;;11.88;10.30;;;14.40;68.80;;;;;;5018434;28;20168;-51
2022/11/12 13:39:19;;;;;;;9.50;8.52;;;14.50;68.80;;;;;;5017767;28;20104;-51
2022/11/12 13:45:20;;;;;;;11.70;8.10;;;14.60;68.60;;;;;;4994827;28;20049;-50
2022/11/12 13:48:13;;;;;;;11.38;8.52;;;14.60;68.60;;;;;;5015588;28;20092;-50
2022/11/12 13:51:02;;;;;;;12.90;9.90;;;14.60;68.60;;;;;;5013572;28;20068;-50
2022/11/12 13:53:48;;;;;;;12.55;9.25;;;14.70;68.70;;;;;;5004008;28;20066;-51
2022/11/12 13:56:35;;;;;;;12.27;10.75;;;14.70;68.70;;;;;;5015539;28;20053;-51
2022/11/12 13:59:23;;;;;;;14.20;10.00;;;14.70;68.60;;;;;;5020401;28;20056;-51
2022/11/12 14:02:22;;;;;;;11.38;8.35;;;14.70;68.60;;;;;;5030945;28;20055;-50
2022/11/12 14:05:17;;;;;;;8.70;6.40;;;14.80;69.20;;;;;;5008995;28;20566;-50
2022/11/12 14:08:39;;;;;;;7.65;6.15;;;14.80;68.60;;;;;;5019036;28;20055;-51
2022/11/12 14:11:50;;;;;;;9.00;7.03;;;14.80;68.70;;;;;;5026670;28;20056;-48
2022/11/12 14:14:54;;;;;;;6.88;6.13;;;14.90;68.50;;;;;;5025453;28;20049;-50
2022/11/12 14:18:05;;;;;;;9.40;6.35;;;14.90;68.60;;;;;;5022545;28;20187;-51
2022/11/12 14:20:51;;;;;;;8.85;6.68;;;14.90;68.40;;;;;;5017190;28;20113;-49
2022/11/12 14:23:37;;;;;;;10.63;7.65;;;15.00;68.40;;;;;;5011716;28;20091;-51
2022/11/12 14:26:37;;;;;;;7.07;6.35;;;15.00;68.40;;;;;;5025155;28;20120;-51
2022/11/12 14:29:23;;;;;;;8.50;7.13;;;15.00;68.50;;;;;;5028549;28;20095;-51
2022/11/12 14:32:17;;;;;;;10.73;7.20;;;15.00;68.30;;;;;;5020822;28;20144;-50
2022/11/12 14:35:24;;;;;;;8.25;6.93;;;15.00;68.10;;;;;;5017346;28;20056;-51
2022/11/12 14:38:17;;;;;;;8.35;6.93;;;15.00;68.20;;;;;;5025795;28;20056;-51
2022/11/12 14:41:16;;;;;;;10.07;6.35;;;15.10;68.10;;;;;;5020090;28;20474;-52
2022/11/12 14:44:04;;;;;;;8.35;7.28;;;15.00;68.00;;;;;;5013431;28;20052;-50
2022/11/12 14:46:59;;;;;;;8.07;6.38;;;15.00;68.00;;;;;;5016654;28;20517;-48
2022/11/12 14:49:47;;;;;;;8.02;7.22;;;15.00;67.80;;;;;;5014574;28;20048;-51
2022/11/12 14:52:39;;;;;;;8.68;6.75;;;15.00;67.80;;;;;;5014337;28;20525;-50
2022/11/12 14:55:33;;;;;;;11.02;6.50;;;14.90;67.80;;;;;;5013509;28;20057;-50
2022/11/12 14:58:20;;;;;;;14.63;10.30;;;14.90;67.80;;;;;;4994635;28;20705;-49
2022/11/12 15:01:27;;;;;;;12.00;9.82;;;14.90;67.80;;;;;;5008897;28;20084;-50
2022/11/12 15:04:40;;;;;;;13.57;8.60;;;14.80;67.90;;;;;;5024003;28;20056;-51
2022/11/12 15:07:29;;;;;;;9.35;7.90;;;14.80;67.70;;;;;;5031766;28;20414;-50
2022/11/12 15:10:37;;;;;;;12.40;7.30;;;14.70;67.80;;;;;;5032508;28;20060;-51
2022/11/12 15:13:26;;;;;;;8.52;7.30;;;14.70;68.10;;;;;;5019962;28;20123;-48
2022/11/12 15:16:21;;;;;;;9.82;6.78;;;14.60;67.90;;;;;;5025188;28;20052;-51
2022/11/12 15:19:25;;;;;;;7.85;6.72;;;14.50;68.00;;;;;;5033980;28;20059;-51